Alex Bay, NY

7:55 AM EDT on October 23, 2014 (GMT -0400)
Massena International-Richards | Change Station
CLOSE
Current Station
Airport
Location: Massena,
Elevation: 213 ft
Nearby Weather Stations

Elev 213 ft 44.94 °N, 74.85 °W | Updated 1 hour ago

Overcast
Overcast
46 °F
Feels Like 40 °F
N
15
Wind Variable Wind from NE
Gusts 23 mph

Today
High -- | Low -- °F
--% Chance of Precip.
Yesterday
High -- | Low -- °F
Precip. -- in
7:28 AM 6:06 PM
Waning Crescent, 0% visible
Pressure 30.12 in
Visibility 10.0 miles
Clouds Overcast 3300 ft
Windchill 40 °F
Dew Point 34 °F
Humidity 63%
Rainfall 0.00 in
Snow Depth Not available.
UV 0 out of 12
Pollen .10 out of 12
Air Quality Not available.
Flu Activity Sporadic
METAR KMSS 231053Z AUTO 04013G20KT 10SM OVC033 08/01 A3011 RMK AO2 SLP198 T00780011

More Conditions Fewer Conditions

Pressure 30.12 in
Visibility 10.0 miles
Clouds Overcast 3300 ft
Windchill 40 °F
Dew Point 34 °F
Humidity 63%
Rainfall 0.00 in
Snow Depth Not available.
UV 0 out of 12
Pollen .10 out of 12
Air Quality Not available.
Flu Activity Sporadic
METAR KMSS 231053Z AUTO 04013G20KT 10SM OVC033 08/01 A3011 RMK AO2 SLP198 T00780011

More Conditions Fewer Conditions

10-Day Weather Forecast

Almanac

Astronomy

Oct. 23, 2014 Rise Set
Actual Time 7:28 AM EDT 6:06 PM EDT
Civil Twilight 6:59 AM EDT 6:36 PM EDT
Nautical Twilight 6:25 AM EDT 7:09 PM EDT
Astronomical Twilight 5:51 AM EDT 7:43 PM EDT
Moon 7:05 AM EDT 6:06 PM EDT
Length of Visible Light 11h 36m
Length of Day
10h 37m
Tomorrow will be 2m 52s shorter.
Waning Crescent, 0% of the Moon is Illuminated
Today
Waning Crescent
Oct 23
New
Oct 30
First Quarter
Nov 6
Full
Nov 14
Last Quarter

Today's Extremes

State Highs State Lows

Community

WunderPhotos

Upload Photos

1,764,209 photos uploaded!

Nearby

Air Quality

  Air Quality AQ Index Pollutant
Thursday Good
PM2.5

Snow Depth

Station Depth Elevation
No new snow has been reported.

Earthquake Activity

City Distance Mag. Time & Date
No recent earthquake activity has been reported nearby.
Minimum magnitude displayed is 2.5.

Coastal Water Temperatures

Place Temperature
Alexandria Bay, NY 57.0 °F
Ogdensburg, NY 57.9 °F

Nearby Weather Stations